Take Two — WA03894 — position and weather

sailwx.info

Track history (hours):
 
Tides and Currents Weather Stations Pressure Air Temp Water Temp Dewpoint Dewpoint Depression Visibility Wind Speed Wind Dir Waves Ship Positions

Take Two

Last reported at 2017-Sep-24 01:21 UTC. Time now 2017-Dec-11 00:40 UTC.
Position N 47°39' W 122°19'.
Warning: this ship's position is months out of date.

Length 16 m.

Type: Pleasure craft. MMSI: 338232831.

Date/timePositionNaut miles runAvg speedWind from/ knotsBaromVisibWave heightAir tempDewpointWater temp
2017-Sep-24 01:21N 47°39' W 122°19'2 4.5
2017-Sep-24 01:00N 47°39' W 122°22'2 3.2
2017-Sep-24 00:29N 47°40' W 122°24'0 0.3
2017-Sep-23 23:59N 47°40' W 122°24'0 0.1
2017-Sep-23 23:29N 47°40' W 122°24'0 0.2
2017-Sep-23 23:00N 47°40' W 122°24'4 8.6
2017-Sep-23 22:29N 47°44' W 122°26'4 8.5
2017-Sep-23 21:59N 47°48' W 122°28'4 8.5
2017-Sep-23 21:30N 47°52' W 122°30'  
2017-Sep-20 17:56N 48°39' W 123°21'4 0.2
2017-Sep-19 19:51N 48°42' W 123°25'3 7.8
2017-Sep-19 19:30N 48°43' W 123°29'4 7.7
2017-Sep-19 18:59N 48°44' W 123°34'2 0.1
2017-Sep-18 19:57N 48°45' W 123°37'1 1.8
2017-Sep-18 19:28N 48°45' W 123°36'14 0.3
2017-Sep-16 16:13N 48°57' W 123°42'1 3.6
2017-Sep-16 15:58N 48°58' W 123°42'3 6.4
2017-Sep-16 15:26N 49°02' W 123°44'10 8.6
2017-Sep-16 14:14N 49°10' W 123°53'2 7.8
2017-Sep-16 14:00N 49°10' W 123°56'0 0.1
2017-Sep-16 11:58N 49°11' W 123°56'0 0.0
2017-Sep-16 11:22N 49°11' W 123°56'0 0.0
2017-Sep-16 10:46N 49°11' W 123°56'0 0.0
2017-Sep-16 09:34N 49°11' W 123°56'0 0.0
2017-Sep-16 09:28N 49°11' W 123°56'0 0.0
2017-Sep-16 07:52N 49°11' W 123°56'0 0.0
2017-Sep-15 22:37N 49°11' W 123°56'1 3.8
2017-Sep-15 22:19N 49°12' W 123°57'3 8.0
2017-Sep-15 22:00N 49°14' W 123°57'5 9.3
2017-Sep-15 21:30N 49°18' W 123°59'5 9.4
2017-Sep-15 21:00N 49°23' W 124°02'5 9.3
2017-Sep-15 20:30N 49°27' W 124°05'5 9.4
2017-Sep-15 20:00N 49°31' W 124°08'5 9.5
2017-Sep-15 19:29N 49°35' W 124°12'5 9.7
2017-Sep-15 19:00N 49°39' W 124°17'510.0
2017-Sep-15 18:30N 49°43' W 124°22'4 8.9
2017-Sep-15 18:00N 49°46' W 124°27'13 0.5
2017-Sep-14 16:53N 49°55' W 124°41'4 9.3
2017-Sep-14 16:28N 49°58' W 124°46'5 8.8
2017-Sep-14 15:57N 50°02' W 124°49'4 7.9
2017-Sep-14 15:30N 50°05' W 124°49'5 9.2
2017-Sep-14 15:00N 50°08' W 124°43'1 2.0
2017-Sep-14 14:29N 50°08' W 124°41'0 0.0
2017-Sep-14 13:56N 50°09' W 124°41'0 0.0
2017-Sep-14 13:26N 50°09' W 124°41'0 0.0
2017-Sep-14 12:59N 50°09' W 124°41'0 0.0
2017-Sep-14 12:29N 50°09' W 124°41'0 0.0
2017-Sep-14 11:59N 50°08' W 124°41'0 0.0
2017-Sep-14 11:29N 50°09' W 124°41'0 0.0
2017-Sep-14 10:59N 50°09' W 124°41'0 0.0
2017-Sep-14 10:17N 50°09' W 124°41'0 0.0
2017-Sep-14 09:59N 50°08' W 124°41'0 0.0
2017-Sep-14 09:29N 50°08' W 124°41'0 0.0
2017-Sep-14 08:53N 50°08' W 124°41'0 0.0
2017-Sep-14 08:29N 50°09' W 124°41'0 0.0
2017-Sep-14 07:59N 50°08' W 124°41'0 0.0
2017-Sep-14 07:26N 50°09' W 124°41'0 0.0
2017-Sep-14 06:59N 50°09' W 124°41'0 0.0
2017-Sep-14 06:29N 50°09' W 124°41'0 0.0
2017-Sep-14 05:56N 50°08' W 124°41'0 0.0
2017-Sep-14 05:29N 50°08' W 124°41'0 0.0
2017-Sep-14 04:59N 50°08' W 124°41'0 0.0
2017-Sep-14 04:17N 50°08' W 124°41'0 0.0
2017-Sep-14 03:59N 50°09' W 124°41'0 0.0
2017-Sep-14 02:09N 50°09' W 124°41'0 0.0
2017-Sep-14 02:00N 50°08' W 124°41'0 0.0
2017-Sep-14 01:30N 50°08' W 124°41'  
Track history (hours):
 
Tides and Currents Weather Stations Pressure Air Temp Water Temp Dewpoint Dewpoint Depression Visibility Wind Speed Wind Dir Waves Ship Positions

Take Two

Last reported at 2017-Sep-24 01:21 UTC. Time now 2017-Dec-11 00:40 UTC.
Position N 47°39' W 122°19'.
Warning: this ship's position is months out of date.

Length 16 m.

Type: Pleasure craft. MMSI: 338232831.

Date/timePositionNaut miles runAvg speedWind from/ knotsBaromVisibWave heightAir tempDewpointWater temp
2017-Sep-24 01:21N 47°39' W 122°19'2 4.5
2017-Sep-24 01:00N 47°39' W 122°22'2 3.2
2017-Sep-24 00:29N 47°40' W 122°24'0 0.3
2017-Sep-23 23:59N 47°40' W 122°24'0 0.1
2017-Sep-23 23:29N 47°40' W 122°24'0 0.2
2017-Sep-23 23:00N 47°40' W 122°24'4 8.6
2017-Sep-23 22:29N 47°44' W 122°26'4 8.5
2017-Sep-23 21:59N 47°48' W 122°28'4 8.5
2017-Sep-23 21:30N 47°52' W 122°30'  
2017-Sep-20 17:56N 48°39' W 123°21'4 0.2
2017-Sep-19 19:51N 48°42' W 123°25'3 7.8
2017-Sep-19 19:30N 48°43' W 123°29'4 7.7
2017-Sep-19 18:59N 48°44' W 123°34'2 0.1
2017-Sep-18 19:57N 48°45' W 123°37'1 1.8
2017-Sep-18 19:28N 48°45' W 123°36'14 0.3
2017-Sep-16 16:13N 48°57' W 123°42'1 3.6
2017-Sep-16 15:58N 48°58' W 123°42'3 6.4
2017-Sep-16 15:26N 49°02' W 123°44'10 8.6
2017-Sep-16 14:14N 49°10' W 123°53'2 7.8
2017-Sep-16 14:00N 49°10' W 123°56'0 0.1
2017-Sep-16 11:58N 49°11' W 123°56'0 0.0
2017-Sep-16 11:22N 49°11' W 123°56'0 0.0
2017-Sep-16 10:46N 49°11' W 123°56'0 0.0
2017-Sep-16 09:34N 49°11' W 123°56'0 0.0
2017-Sep-16 09:28N 49°11' W 123°56'0 0.0
2017-Sep-16 07:52N 49°11' W 123°56'0 0.0
2017-Sep-15 22:37N 49°11' W 123°56'1 3.8
2017-Sep-15 22:19N 49°12' W 123°57'3 8.0
2017-Sep-15 22:00N 49°14' W 123°57'5 9.3
2017-Sep-15 21:30N 49°18' W 123°59'5 9.4
2017-Sep-15 21:00N 49°23' W 124°02'5 9.3
2017-Sep-15 20:30N 49°27' W 124°05'5 9.4
2017-Sep-15 20:00N 49°31' W 124°08'5 9.5
2017-Sep-15 19:29N 49°35' W 124°12'5 9.7
2017-Sep-15 19:00N 49°39' W 124°17'510.0
2017-Sep-15 18:30N 49°43' W 124°22'4 8.9
2017-Sep-15 18:00N 49°46' W 124°27'13 0.5
2017-Sep-14 16:53N 49°55' W 124°41'4 9.3
2017-Sep-14 16:28N 49°58' W 124°46'5 8.8
2017-Sep-14 15:57N 50°02' W 124°49'4 7.9
2017-Sep-14 15:30N 50°05' W 124°49'5 9.2
2017-Sep-14 15:00N 50°08' W 124°43'1 2.0
2017-Sep-14 14:29N 50°08' W 124°41'0 0.0
2017-Sep-14 13:56N 50°09' W 124°41'0 0.0
2017-Sep-14 13:26N 50°09' W 124°41'0 0.0
2017-Sep-14 12:59N 50°09' W 124°41'0 0.0
2017-Sep-14 12:29N 50°09' W 124°41'0 0.0
2017-Sep-14 11:59N 50°08' W 124°41'0 0.0
2017-Sep-14 11:29N 50°09' W 124°41'0 0.0
2017-Sep-14 10:59N 50°09' W 124°41'0 0.0
2017-Sep-14 10:17N 50°09' W 124°41'0 0.0
2017-Sep-14 09:59N 50°08' W 124°41'0 0.0
2017-Sep-14 09:29N 50°08' W 124°41'0 0.0
2017-Sep-14 08:53N 50°08' W 124°41'0 0.0
2017-Sep-14 08:29N 50°09' W 124°41'0 0.0
2017-Sep-14 07:59N 50°08' W 124°41'0 0.0
2017-Sep-14 07:26N 50°09' W 124°41'0 0.0
2017-Sep-14 06:59N 50°09' W 124°41'0 0.0
2017-Sep-14 06:29N 50°09' W 124°41'0 0.0
2017-Sep-14 05:56N 50°08' W 124°41'0 0.0
2017-Sep-14 05:29N 50°08' W 124°41'0 0.0
2017-Sep-14 04:59N 50°08' W 124°41'0 0.0
2017-Sep-14 04:17N 50°08' W 124°41'0 0.0
2017-Sep-14 03:59N 50°09' W 124°41'0 0.0
2017-Sep-14 02:09N 50°09' W 124°41'0 0.0
2017-Sep-14 02:00N 50°08' W 124°41'0 0.0
2017-Sep-14 01:30N 50°08' W 124°41'  

Dump ship's entire track history